Time;durP1;ratioP1;P1;durP2;ratioP2;P2;SDS_P1;SDS_P2;PMS_P1;PMS_P2;Temp;Humidity;BMP_temperature;BMP_pressure;BME280_temperature;BME280_humidity;BME280_pressure;Samples;Min_cycle;Max_cycle;Signal;HPM_P1;HPM_P2
2023/09/05 00:02:25;;;;;;;;;;;15.00;99.90;;;;;;7319135;19;9293;-75
2023/09/05 00:04:57;;;;;;;;;;;15.00;99.90;;;;;;7320362;19;8944;-75
2023/09/05 00:07:29;;;;;;;;;;;15.00;99.90;;;;;;7320143;19;9279;-76
2023/09/05 00:10:01;;;;;;;;;;;15.00;99.90;;;;;;7318645;19;10224;-75
2023/09/05 00:12:30;;;;;;;;;;;15.00;99.90;;;;;;7320073;19;9234;-76
2023/09/05 00:15:00;;;;;;;;;;;15.00;99.90;;;;;;7318946;19;9520;-75
2023/09/05 00:17:30;;;;;;;;;;;15.00;99.90;;;;;;7319899;19;9596;-75
2023/09/05 00:19:58;;;;;;;;;;;15.00;99.90;;;;;;7320711;19;9388;-76
2023/09/05 00:22:30;;;;;;;;;;;15.10;99.90;;;;;;7316792;19;10241;-75
2023/09/05 00:24:59;;;;;;;;;;;15.10;99.90;;;;;;7315827;19;9498;-76
2023/09/05 00:27:28;;;;;;;;;;;15.10;99.90;;;;;;7319216;19;9507;-75
2023/09/05 00:29:57;;;;;;;;;;;15.00;99.90;;;;;;7321415;19;9318;-76
2023/09/05 00:32:26;;;;;;;;;;;15.10;99.90;;;;;;7319408;19;9125;-76
2023/09/05 00:34:55;;;;;;;;;;;15.10;99.90;;;;;;7320163;19;9246;-75
2023/09/05 00:37:24;;;;;;;;;;;15.10;99.90;;;;;;7318326;19;9250;-75
2023/09/05 00:39:56;;;;;;;;;;;15.00;99.90;;;;;;7320601;19;9174;-75
2023/09/05 00:42:45;;;;;;;;;;;15.00;99.90;;;;;;7316612;19;9556;-76
2023/09/05 00:45:14;;;;;;;;;;;14.90;99.90;;;;;;7318640;19;9153;-76
2023/09/05 00:47:47;;;;;;;;;;;14.90;99.90;;;;;;7320095;19;9222;-76
2023/09/05 00:50:18;;;;;;;;;;;14.90;99.90;;;;;;7316891;19;9621;-76
2023/09/05 00:52:48;;;;;;;;;;;14.90;99.90;;;;;;7314573;19;9122;-75
2023/09/05 00:55:24;;;;;;;;;;;14.80;99.90;;;;;;7319446;19;9218;-76
2023/09/05 00:57:55;;;;;;;;;;;14.80;99.90;;;;;;7317299;19;11317;-76
2023/09/05 01:00:24;;;;;;;;;;;14.80;99.90;;;;;;7319255;19;9095;-76
2023/09/05 01:03:13;;;;;;;;;;;14.80;99.90;;;;;;7318348;19;9239;-76
2023/09/05 01:05:49;;;;;;;;;;;14.80;99.90;;;;;;7317422;19;10196;-75
2023/09/05 01:08:28;;;;;;;;;;;14.80;99.90;;;;;;7317806;19;9274;-76
2023/09/05 01:11:08;;;;;;;;;;;14.90;99.90;;;;;;7317834;19;9276;-76
2023/09/05 01:13:41;;;;;;;;;;;15.00;99.90;;;;;;7319686;19;9560;-76
2023/09/05 01:16:10;;;;;;;;;;;15.00;99.90;;;;;;7320629;19;9337;-76
2023/09/05 01:18:40;;;;;;;;;;;15.00;99.90;;;;;;7319438;19;9253;-75
2023/09/05 01:21:22;;;;;;;;;;;14.90;99.90;;;;;;7323412;19;9269;-76
2023/09/05 01:23:58;;;;;;;;;;;14.90;99.90;;;;;;7326947;19;9550;-76
2023/09/05 01:26:31;;;;;;;;;;;14.90;99.90;;;;;;7322508;19;9475;-76
2023/09/05 01:29:01;;;;;;;;;;;14.80;99.90;;;;;;7326415;19;11168;-75
2023/09/05 01:31:31;;;;;;;;;;;14.80;99.90;;;;;;7324858;19;10138;-75
2023/09/05 01:34:00;;;;;;;;;;;14.70;99.90;;;;;;7326276;19;9240;-75
2023/09/05 01:36:29;;;;;;;;;;;14.70;99.90;;;;;;7323676;19;9459;-76
2023/09/05 01:38:58;;;;;;;;;;;14.70;99.90;;;;;;7323665;19;9381;-76
2023/09/05 01:41:29;;;;;;;;;;;14.70;99.90;;;;;;7323235;19;9229;-76
2023/09/05 01:43:58;;;;;;;;;;;14.70;99.90;;;;;;7323516;19;9578;-76
2023/09/05 01:46:47;;;;;;;;;;;14.70;99.90;;;;;;7322668;19;9463;-75
2023/09/05 01:49:16;;;;;;;;;;;14.70;99.90;;;;;;7325763;19;9170;-75
2023/09/05 01:51:45;;;;;;;;;;;14.70;99.90;;;;;;7325372;19;9166;-75
2023/09/05 01:54:14;;;;;;;;;;;14.70;99.90;;;;;;7322041;19;9460;-76
2023/09/05 01:56:46;;;;;;;;;;;14.70;99.90;;;;;;7321465;19;9550;-75
2023/09/05 01:59:19;;;;;;;;;;;14.70;99.90;;;;;;7322397;19;9467;-76
2023/09/05 02:02:08;;;;;;;;;;;14.70;99.90;;;;;;7319252;19;9269;-75
2023/09/05 02:04:36;;;;;;;;;;;14.70;99.90;;;;;;7322588;19;9645;-75
2023/09/05 02:07:08;;;;;;;;;;;14.70;99.90;;;;;;7321843;19;9166;-75
2023/09/05 02:09:38;;;;;;;;;;;14.80;99.90;;;;;;7323244;19;9477;-76
2023/09/05 02:12:09;;;;;;;;;;;14.80;99.90;;;;;;7323698;19;9422;-75
2023/09/05 02:14:38;;;;;;;;;;;14.70;99.90;;;;;;7322915;19;9182;-76
2023/09/05 02:17:07;;;;;;;;;;;14.70;99.90;;;;;;7324325;19;9436;-75
2023/09/05 02:19:36;;;;;;;;;;;14.70;99.90;;;;;;7324790;19;9328;-75
2023/09/05 02:22:06;;;;;;;;;;;14.70;99.90;;;;;;7320940;19;9493;-76
2023/09/05 02:24:34;;;;;;;;;;;14.70;99.90;;;;;;7322647;19;9453;-76
2023/09/05 02:27:04;;;;;;;;;;;14.60;99.90;;;;;;7321528;19;9412;-75
2023/09/05 02:29:35;;;;;;;;;;;14.60;99.90;;;;;;7321359;19;9515;-75
2023/09/05 02:32:05;;;;;;;;;;;14.60;99.90;;;;;;7321216;19;10408;-75
2023/09/05 02:34:55;;;;;;;;;;;14.60;99.90;;;;;;7322803;19;9232;-75
2023/09/05 02:37:24;;;;;;;;;;;14.50;99.90;;;;;;7321198;19;9226;-76
2023/09/05 02:39:53;;;;;;;;;;;14.50;99.90;;;;;;7321676;19;9190;-76
2023/09/05 02:42:42;;;;;;;;;;;14.40;99.90;;;;;;7320187;19;9286;-75
2023/09/05 02:45:15;;;;;;;;;;;14.40;99.90;;;;;;7322893;19;9495;-76
2023/09/05 02:47:44;;;;;;;;;;;14.30;99.90;;;;;;7322725;19;9519;-76
2023/09/05 02:50:13;;;;;;;;;;;14.30;99.90;;;;;;7311330;19;9766;-75
2023/09/05 02:52:42;;;;;;;;;;;14.30;99.90;;;;;;7322282;19;9489;-76
2023/09/05 02:55:11;;;;;;;;;;;14.30;99.90;;;;;;7321689;19;9472;-76
2023/09/05 02:57:41;;;;;;;;;;;14.30;99.90;;;;;;7322598;19;9471;-75
2023/09/05 03:00:14;;;;;;;;;;;14.20;99.90;;;;;;7322199;19;10186;-76
2023/09/05 03:02:43;;;;;;;;;;;14.20;99.90;;;;;;7321977;19;9410;-75
2023/09/05 03:05:13;;;;;;;;;;;14.20;99.90;;;;;;7324783;19;9361;-75
2023/09/05 03:07:42;;;;;;;;;;;14.30;99.90;;;;;;7325055;19;9352;-75
2023/09/05 03:10:12;;;;;;;;;;;14.30;99.90;;;;;;7324325;19;10324;-75
2023/09/05 03:12:41;;;;;;;;;;;14.30;99.90;;;;;;7324851;19;9199;-76
2023/09/05 03:15:18;;;;;;;;;;;14.20;99.90;;;;;;7324715;19;9399;-75
2023/09/05 03:18:07;;;;;;;;;;;14.20;99.90;;;;;;7323188;19;9402;-75
2023/09/05 03:20:36;;;;;;;;;;;14.20;99.90;;;;;;7324494;19;9238;-75
2023/09/05 03:23:06;;;;;;;;;;;14.20;99.90;;;;;;7325379;19;9267;-75
2023/09/05 03:25:34;;;;;;;;;;;14.20;99.90;;;;;;7323822;19;10537;-76
2023/09/05 03:28:04;;;;;;;;;;;14.20;99.90;;;;;;7322805;19;9196;-75
2023/09/05 03:30:37;;;;;;;;;;;14.20;99.90;;;;;;7322808;19;10821;-75
2023/09/05 03:33:06;;;;;;;;;;;14.20;99.90;;;;;;7320064;19;9410;-75
2023/09/05 03:35:36;;;;;;;;;;;14.20;99.90;;;;;;7319992;19;9792;-76
2023/09/05 03:38:05;;;;;;;;;;;14.20;99.90;;;;;;7316218;19;10278;-75
2023/09/05 03:40:35;;;;;;;;;;;14.20;99.90;;;;;;7318974;19;9562;-76
2023/09/05 03:43:24;;;;;;;;;;;14.10;99.90;;;;;;7316591;19;10472;-75
2023/09/05 03:45:56;;;;;;;;;;;14.10;99.90;;;;;;7315313;19;9233;-76
2023/09/05 03:48:25;;;;;;;;;;;14.00;99.90;;;;;;7313238;19;9303;-75
2023/09/05 03:50:54;;;;;;;;;;;14.00;99.90;;;;;;7297323;19;9310;-75
2023/09/05 03:53:23;;;;;;;;;;;13.90;99.90;;;;;;7317734;19;9486;-75
2023/09/05 03:55:52;;;;;;;;;;;13.80;99.90;;;;;;7320283;19;9616;-75
2023/09/05 03:58:22;;;;;;;;;;;13.80;99.90;;;;;;7309950;19;9258;-76
2023/09/05 04:00:51;;;;;;;;;;;13.80;99.90;;;;;;7315486;19;9515;-75
2023/09/05 04:03:22;;;;;;;;;;;13.80;99.90;;;;;;7323901;19;9189;-75
2023/09/05 04:05:52;;;;;;;;;;;13.80;99.90;;;;;;7322559;19;9536;-75
2023/09/05 04:08:21;;;;;;;;;;;13.70;99.90;;;;;;7317592;19;9473;-75
2023/09/05 04:10:50;;;;;;;;;;;13.70;99.90;;;;;;7321856;19;9305;-75
2023/09/05 04:13:19;;;;;;;;;;;13.60;99.90;;;;;;7320779;19;9218;-75
2023/09/05 04:15:48;;;;;;;;;;;13.50;99.90;;;;;;7321523;19;9195;-75
2023/09/05 04:18:40;;;;;;;;;;;13.60;99.90;;;;;;7318717;19;9219;-75
2023/09/05 04:21:09;;;;;;;;;;;13.50;99.90;;;;;;7321514;19;9170;-75
2023/09/05 04:23:38;;;;;;;;;;;13.50;99.90;;;;;;7320299;19;9241;-75
2023/09/05 04:26:07;;;;;;;;;;;13.50;99.90;;;;;;7321706;19;9245;-75
2023/09/05 04:28:36;;;;;;;;;;;13.40;99.90;;;;;;7321773;19;9154;-75
2023/09/05 04:31:07;;;;;;;;;;;13.40;99.90;;;;;;7320100;19;9138;-75
2023/09/05 04:33:40;;;;;;;;;;;13.40;99.90;;;;;;7318997;19;9585;-75
2023/09/05 04:36:12;;;;;;;;;;;13.40;99.90;;;;;;7320718;19;9243;-75
2023/09/05 04:38:48;;;;;;;;;;;13.40;99.90;;;;;;7317431;19;9130;-75
2023/09/05 04:41:18;;;;;;;;;;;13.40;99.90;;;;;;7319912;19;9274;-75
2023/09/05 04:43:47;;;;;;;;;;;13.40;99.90;;;;;;7319187;19;10711;-75
2023/09/05 04:46:16;;;;;;;;;;;13.40;99.90;;;;;;7319944;19;9450;-75
2023/09/05 04:49:09;;;;;;;;;;;13.50;99.90;;;;;;7319768;19;9514;-75
2023/09/05 04:51:58;;;;;;;;;;;13.40;99.90;;;;;;7319755;19;9591;-75
2023/09/05 04:54:47;;;;;;;;;;;13.40;99.90;;;;;;7312988;19;10134;-75
2023/09/05 04:57:16;;;;;;;;;;;13.40;99.90;;;;;;7318645;19;9264;-75
2023/09/05 04:59:47;;;;;;;;;;;13.30;99.90;;;;;;7320059;19;9340;-75
2023/09/05 05:02:17;;;;;;;;;;;13.30;99.90;;;;;;7319037;19;9174;-75
2023/09/05 05:04:48;;;;;;;;;;;13.30;99.90;;;;;;7314419;19;9461;-75
2023/09/05 05:07:37;;;;;;;;;;;13.30;99.90;;;;;;7310132;19;9284;-75
2023/09/05 05:10:07;;;;;;;;;;;13.20;99.90;;;;;;7317998;19;9222;-75
2023/09/05 05:12:56;;;;;;;;;;;13.20;99.90;;;;;;7315423;19;9224;-76
2023/09/05 05:15:27;;;;;;;;;;;13.20;99.90;;;;;;7317792;19;9246;-75
2023/09/05 05:17:56;;;;;;;;;;;13.20;99.90;;;;;;7317942;19;9182;-75
2023/09/05 05:20:28;;;;;;;;;;;13.30;99.90;;;;;;7318364;19;9278;-75
2023/09/05 05:22:57;;;;;;;;;;;13.20;99.90;;;;;;7321328;19;9396;-75
2023/09/05 05:25:26;;;;;;;;;;;13.30;99.90;;;;;;7317528;19;9453;-75
2023/09/05 05:27:55;;;;;;;;;;;13.40;99.90;;;;;;7320291;19;9222;-75
2023/09/05 05:30:24;;;;;;;;;;;13.40;99.90;;;;;;7321248;19;9314;-75
2023/09/05 05:32:53;;;;;;;;;;;13.40;99.90;;;;;;7319708;19;9295;-75
2023/09/05 05:35:22;;;;;;;;;;;13.40;99.90;;;;;;7315465;19;9245;-75
2023/09/05 05:38:14;;;;;;;;;;;13.50;99.90;;;;;;7315246;19;9407;-75
2023/09/05 05:40:43;;;;;;;;;;;13.50;99.90;;;;;;7316576;19;9290;-75
2023/09/05 05:43:32;;;;;;;;;;;13.60;99.90;;;;;;7316623;19;9501;-75
2023/09/05 05:46:01;;;;;;;;;;;13.80;99.90;;;;;;7318367;19;9335;-75
2023/09/05 05:48:51;;;;;;;;;;;13.90;99.90;;;;;;7314693;19;9254;-75
2023/09/05 05:51:20;;;;;;;;;;;14.00;99.90;;;;;;7318791;19;9235;-75
2023/09/05 05:53:52;;;;;;;;;;;14.00;99.90;;;;;;7317507;19;9395;-75
2023/09/05 05:56:21;;;;;;;;;;;14.10;99.90;;;;;;7318091;19;11387;-74
2023/09/05 05:58:50;;;;;;;;;;;14.10;99.90;;;;;;7319878;19;9142;-75
2023/09/05 06:01:21;;;;;;;;;;;14.20;99.90;;;;;;7317166;19;9158;-75
2023/09/05 06:03:49;;;;;;;;;;;14.20;99.90;;;;;;7313289;19;9233;-75
2023/09/05 06:06:18;;;;;;;;;;;14.20;99.90;;;;;;7315676;19;8944;-79
2023/09/05 06:08:48;;;;;;;;;;;14.30;99.90;;;;;;7315122;19;9361;-75
2023/09/05 06:11:19;;;;;;;;;;;14.30;99.90;;;;;;7325167;19;9285;-75
2023/09/05 06:13:51;;;;;;;;;;;14.40;99.90;;;;;;7323099;19;9263;-75
2023/09/05 06:16:21;;;;;;;;;;;14.40;99.90;;;;;;7325038;19;9250;-76
2023/09/05 06:19:10;;;;;;;;;;;14.50;99.90;;;;;;7318840;19;9313;-76
2023/09/05 06:21:40;;;;;;;;;;;14.50;99.90;;;;;;7321353;19;9304;-75
2023/09/05 06:24:09;;;;;;;;;;;14.60;99.90;;;;;;7317242;19;9237;-76
2023/09/05 06:26:44;;;;;;;;;;;14.60;99.90;;;;;;7314941;19;9269;-76
2023/09/05 06:29:13;;;;;;;;;;;14.70;99.90;;;;;;7317918;19;12335;-75
2023/09/05 06:31:43;;;;;;;;;;;14.80;99.90;;;;;;7319430;19;9261;-75
2023/09/05 06:34:12;;;;;;;;;;;14.90;99.90;;;;;;7319301;19;9304;-76
2023/09/05 06:36:41;;;;;;;;;;;15.00;99.90;;;;;;7312990;19;9447;-76
2023/09/05 06:39:10;;;;;;;;;;;15.10;99.90;;;;;;7320240;19;9473;-75
2023/09/05 06:41:42;;;;;;;;;;;15.20;99.90;;;;;;7324036;19;9775;-76
2023/09/05 06:44:11;;;;;;;;;;;15.20;99.90;;;;;;7322790;19;9333;-75
2023/09/05 06:46:40;;;;;;;;;;;15.30;99.90;;;;;;7321397;19;9261;-75
2023/09/05 06:49:09;;;;;;;;;;;15.40;99.90;;;;;;7323757;19;9168;-76
2023/09/05 06:51:38;;;;;;;;;;;15.40;99.90;;;;;;7318836;19;9473;-75
2023/09/05 06:54:07;;;;;;;;;;;15.50;99.90;;;;;;7318634;19;9280;-76
2023/09/05 06:56:36;;;;;;;;;;;15.60;99.90;;;;;;7319286;19;9462;-75
2023/09/05 06:59:17;;;;;;;;;;;15.60;99.90;;;;;;7319154;19;9158;-75
2023/09/05 07:01:47;;;;;;;;;;;15.70;99.90;;;;;;7317337;19;9259;-76
2023/09/05 07:04:36;;;;;;;;;;;15.70;99.90;;;;;;7316357;19;9376;-76
2023/09/05 07:07:06;;;;;;;;;;;15.90;99.90;;;;;;7319809;19;9417;-75
2023/09/05 07:09:35;;;;;;;;;;;16.00;99.90;;;;;;7316630;19;9464;-75
2023/09/05 07:12:06;;;;;;;;;;;16.30;99.90;;;;;;7321580;19;9229;-75
2023/09/05 07:14:38;;;;;;;;;;;16.50;99.90;;;;;;7320592;19;9320;-75
2023/09/05 07:17:08;;;;;;;;;;;16.60;99.90;;;;;;7320314;19;9302;-75
2023/09/05 07:19:37;;;;;;;;;;;16.70;99.90;;;;;;7319948;19;9351;-75
2023/09/05 07:22:07;;;;;;;;;;;16.80;99.90;;;;;;7321849;19;9374;-74
2023/09/05 07:24:56;;;;;;;;;;;17.00;99.90;;;;;;7318266;19;9514;-75
2023/09/05 07:27:25;;;;;;;;;;;17.30;99.90;;;;;;7320036;19;9123;-75
2023/09/05 07:29:57;;;;;;;;;;;17.40;99.90;;;;;;7318311;19;9611;-76
2023/09/05 07:32:26;;;;;;;;;;;17.70;99.90;;;;;;7301699;19;9261;-75
2023/09/05 07:34:55;;;;;;;;;;;17.90;99.90;;;;;;7318462;19;9444;-75
2023/09/05 07:37:25;;;;;;;;;;;18.30;99.90;;;;;;7319220;19;9615;-75
2023/09/05 07:39:54;;;;;;;;;;;18.70;99.90;;;;;;7318874;19;9401;-75
2023/09/05 07:42:43;;;;;;;;;;;19.00;99.90;;;;;;7315919;19;9492;-75
2023/09/05 07:45:16;;;;;;;;;;;19.30;99.90;;;;;;7319084;19;9273;-75
2023/09/05 07:47:45;;;;;;;;;;;19.50;99.90;;;;;;7318707;19;9297;-76
2023/09/05 07:50:14;;;;;;;;;;;19.70;99.90;;;;;;7319343;19;9309;-75
2023/09/05 07:52:43;;;;;;;;;;;20.00;99.90;;;;;;7317201;19;9246;-75
2023/09/05 07:55:12;;;;;;;;;;;20.20;99.90;;;;;;7319639;19;10303;-75
2023/09/05 07:57:41;;;;;;;;;;;20.40;99.90;;;;;;7321862;19;10322;-75
2023/09/05 08:00:15;;;;;;;;;;;20.50;99.90;;;;;;7317444;19;9373;-75
2023/09/05 08:02:48;;;;;;;;;;;20.60;99.90;;;;;;7321603;19;10754;-74
2023/09/05 08:05:17;;;;;;;;;;;20.70;99.90;;;;;;7322379;19;9590;-73
2023/09/05 08:08:07;;;;;;;;;;;20.80;99.90;;;;;;7309949;19;9923;-73
2023/09/05 08:10:37;;;;;;;;;;;20.90;99.90;;;;;;7313077;19;9408;-75
2023/09/05 08:13:07;;;;;;;;;;;21.00;99.90;;;;;;7294825;19;9618;-75
2023/09/05 08:15:56;;;;;;;;;;;21.00;99.90;;;;;;7301779;19;9544;-76
2023/09/05 08:18:28;;;;;;;;;;;20.90;99.90;;;;;;7311125;19;9218;-76
2023/09/05 08:20:59;;;;;;;;;;;20.80;99.90;;;;;;7286021;19;9595;-75
2023/09/05 08:23:28;;;;;;;;;;;20.80;99.90;;;;;;7318017;19;9506;-75
2023/09/05 08:25:58;;;;;;;;;;;20.70;99.90;;;;;;7297563;19;8944;-75
2023/09/05 08:28:47;;;;;;;;;;;20.70;99.90;;;;;;7293808;19;9321;-75
2023/09/05 08:31:16;;;;;;;;;;;20.70;99.90;;;;;;7300390;19;9762;-75
2023/09/05 08:33:48;;;;;;;;;;;20.70;99.90;;;;;;7316575;19;9174;-75
2023/09/05 08:36:17;;;;;;;;;;;20.70;99.90;;;;;;7299857;19;9217;-75
2023/09/05 08:38:46;;;;;;;;;;;20.80;99.90;;;;;;7309588;19;11289;-76
2023/09/05 08:41:15;;;;;;;;;;;20.80;99.90;;;;;;7303175;19;9422;-76
2023/09/05 08:43:44;;;;;;;;;;;20.90;99.90;;;;;;7306661;19;9692;-76
2023/09/05 08:46:34;;;;;;;;;;;21.00;99.90;;;;;;7301723;19;9452;-75
2023/09/05 08:49:26;;;;;;;;;;;21.10;99.90;;;;;;7291488;19;9519;-75
2023/09/05 08:52:00;;;;;;;;;;;21.20;99.90;;;;;;7300107;19;9261;-75
2023/09/05 08:54:29;;;;;;;;;;;21.20;99.90;;;;;;7293234;19;9388;-74
2023/09/05 08:57:02;;;;;;;;;;;21.30;99.90;;;;;;7314852;19;9380;-74
2023/09/05 08:59:51;;;;;;;;;;;21.40;99.90;;;;;;7313990;19;9380;-75
2023/09/05 09:02:20;;;;;;;;;;;21.50;99.90;;;;;;7318793;19;9399;-74
2023/09/05 09:05:13;;;;;;;;;;;21.60;99.90;;;;;;7313016;19;9230;-74
2023/09/05 09:07:42;;;;;;;;;;;21.70;99.90;;;;;;7317294;19;9394;-75
2023/09/05 09:10:23;;;;;;;;;;;21.80;99.90;;;;;;7310062;19;9772;-76
2023/09/05 09:12:55;;;;;;;;;;;21.90;99.90;;;;;;7299863;19;10335;-76
2023/09/05 09:15:28;;;;;;;;;;;22.10;99.90;;;;;;7311958;19;10214;-75
2023/09/05 09:17:57;;;;;;;;;;;22.20;99.90;;;;;;7317752;19;9578;-75
2023/09/05 09:20:50;;;;;;;;;;;22.30;99.90;;;;;;7314708;19;10154;-75
2023/09/05 09:23:27;;;;;;;;;;;22.40;99.90;;;;;;7320540;19;9171;-75
2023/09/05 09:25:57;;;;;;;;;;;22.50;99.90;;;;;;7316439;19;9605;-75
2023/09/05 09:28:28;;;;;;;;;;;22.60;99.90;;;;;;7318170;19;9292;-75
2023/09/05 09:31:02;;;;;;;;;;;22.70;99.90;;;;;;7317625;19;9284;-75
2023/09/05 09:33:33;;;;;;;;;;;22.90;99.90;;;;;;7319259;19;9445;-75
2023/09/05 09:36:10;;;;;;;;;;;23.00;99.90;;;;;;7318204;19;9247;-75
2023/09/05 09:38:41;;;;;;;;;;;23.00;99.90;;;;;;7316976;19;9471;-75
2023/09/05 09:41:11;;;;;;;;;;;23.10;99.90;;;;;;7317180;19;9247;-75
2023/09/05 09:43:42;;;;;;;;;;;23.10;99.90;;;;;;7323173;19;9486;-75
2023/09/05 09:46:11;;;;;;;;;;;23.30;99.90;;;;;;7327105;19;9504;-75
2023/09/05 09:48:45;;;;;;;;;;;23.40;99.90;;;;;;7323973;19;9256;-75
2023/09/05 09:51:18;;;;;;;;;;;23.50;99.90;;;;;;7324709;19;9302;-75
2023/09/05 09:53:53;;;;;;;;;;;23.50;99.90;;;;;;7323738;19;9224;-76
2023/09/05 09:56:26;;;;;;;;;;;23.60;99.90;;;;;;7323808;19;9159;-75
2023/09/05 09:58:58;;;;;;;;;;;23.70;99.90;;;;;;7319261;19;9498;-75
2023/09/05 10:01:29;;;;;;;;;;;23.80;99.90;;;;;;7313346;19;10130;-73
2023/09/05 10:03:59;;;;;;;;;;;24.00;99.90;;;;;;7312023;19;9519;-75
2023/09/05 10:06:32;;;;;;;;;;;24.00;99.90;;;;;;7314574;19;9368;-75
2023/09/05 10:09:03;;;;;;;;;;;24.10;99.90;;;;;;7318831;19;9508;-75
2023/09/05 10:11:34;;;;;;;;;;;24.20;99.90;;;;;;7319554;19;9348;-73
2023/09/05 10:14:04;;;;;;;;;;;24.30;99.90;;;;;;7323704;19;9661;-74
2023/09/05 10:16:55;;;;;;;;;;;24.50;99.70;;;;;;7318648;19;9225;-72
2023/09/05 10:19:25;;;;;;;;;;;24.60;99.80;;;;;;7307912;19;10122;-71
2023/09/05 10:21:58;;;;;;;;;;;24.70;99.30;;;;;;7322109;19;10154;-73
2023/09/05 10:24:48;;;;;;;;;;;24.70;99.00;;;;;;7320839;19;9352;-73
2023/09/05 10:27:17;;;;;;;;;;;24.80;97.10;;;;;;7322104;19;9601;-73
2023/09/05 10:29:48;;;;;;;;;;;24.90;96.80;;;;;;7320916;19;9557;-72
2023/09/05 10:32:20;;;;;;;;;;;24.90;96.50;;;;;;7322575;19;10494;-73
2023/09/05 10:35:02;;;;;;;;;;;25.00;96.30;;;;;;7322716;19;9225;-76
2023/09/05 10:37:51;;;;;;;;;;;25.10;96.00;;;;;;7319650;19;9261;-74
2023/09/05 10:40:33;;;;;;;;;;;25.20;95.90;;;;;;7323270;19;9222;-74
2023/09/05 10:43:05;;;;;;;;;;;25.20;95.60;;;;;;7313167;19;9261;-76
2023/09/05 10:45:36;;;;;;;;;;;25.30;95.30;;;;;;7321615;19;9265;-76
2023/09/05 10:48:15;;;;;;;;;;;25.40;94.90;;;;;;7322676;19;9530;-75
2023/09/05 10:51:06;;;;;;;;;;;25.40;94.40;;;;;;7322321;19;10062;-74
2023/09/05 10:53:38;;;;;;;;;;;25.50;93.40;;;;;;7311377;19;9555;-74
2023/09/05 10:56:27;;;;;;;;;;;25.50;93.20;;;;;;7319772;19;9249;-74
2023/09/05 10:58:59;;;;;;;;;;;25.60;92.80;;;;;;7320191;19;9208;-74
2023/09/05 11:01:56;;;;;;;;;;;25.70;92.00;;;;;;7317074;19;9632;-74
2023/09/05 11:04:34;;;;;;;;;;;25.70;91.10;;;;;;7321419;19;9205;-76
2023/09/05 11:07:09;;;;;;;;;;;25.70;90.70;;;;;;7318901;19;9254;-76
2023/09/05 11:10:01;;;;;;;;;;;25.80;90.30;;;;;;7317243;19;9283;-77
2023/09/05 11:12:32;;;;;;;;;;;25.80;90.60;;;;;;7320442;19;9274;-77
2023/09/05 11:15:08;;;;;;;;;;;25.90;90.10;;;;;;7319087;19;9263;-76
2023/09/05 11:17:39;;;;;;;;;;;25.90;88.80;;;;;;7321702;19;11152;-76
2023/09/05 11:20:10;;;;;;;;;;;25.90;88.10;;;;;;7319010;19;10769;-76
2023/09/05 11:22:39;;;;;;;;;;;25.90;87.60;;;;;;7321166;19;9265;-76
2023/09/05 11:25:12;;;;;;;;;;;26.00;86.60;;;;;;7321148;19;9225;-76
2023/09/05 11:27:41;;;;;;;;;;;26.00;86.90;;;;;;7315598;19;9124;-77
2023/09/05 11:30:11;;;;;;;;;;;26.10;86.40;;;;;;7320371;19;9477;-76
2023/09/05 11:32:42;;;;;;;;;;;26.10;83.60;;;;;;7320446;19;9743;-77
2023/09/05 11:35:11;;;;;;;;;;;26.10;83.40;;;;;;7319158;19;9554;-77
2023/09/05 11:37:40;;;;;;;;;;;26.10;82.90;;;;;;7316619;19;9333;-76
2023/09/05 11:40:22;;;;;;;;;;;26.20;81.90;;;;;;7317968;19;9470;-76
2023/09/05 11:42:51;;;;;;;;;;;26.20;82.50;;;;;;7320927;19;9589;-76
2023/09/05 11:45:23;;;;;;;;;;;26.30;81.70;;;;;;7315909;19;9391;-76
2023/09/05 11:47:54;;;;;;;;;;;26.30;81.50;;;;;;7321942;19;9277;-76
2023/09/05 11:50:26;;;;;;;;;;;26.30;81.60;;;;;;7318226;19;10418;-76
2023/09/05 11:53:16;;;;;;;;;;;26.40;82.00;;;;;;7317889;19;9459;-76
2023/09/05 11:55:50;;;;;;;;;;;26.40;80.70;;;;;;7320103;19;10710;-76
2023/09/05 11:58:20;;;;;;;;;;;26.40;81.10;;;;;;7320495;19;11148;-76
2023/09/05 12:00:50;;;;;;;;;;;26.50;79.80;;;;;;7319521;19;9210;-77
2023/09/05 12:03:19;;;;;;;;;;;26.50;78.30;;;;;;7318886;19;9517;-77
2023/09/05 12:05:52;;;;;;;;;;;26.50;78.40;;;;;;7317687;19;9223;-77
2023/09/05 12:08:23;;;;;;;;;;;26.60;79.10;;;;;;7314296;19;9847;-77
2023/09/05 12:10:55;;;;;;;;;;;26.60;79.70;;;;;;7319875;19;9289;-76
2023/09/05 12:13:39;;;;;;;;;;;26.60;79.50;;;;;;7318091;19;9308;-77
2023/09/05 12:16:09;;;;;;;;;;;26.70;79.30;;;;;;7313805;19;9300;-77
2023/09/05 12:18:38;;;;;;;;;;;26.70;80.20;;;;;;7320161;19;9147;-77
2023/09/05 12:21:07;;;;;;;;;;;26.70;79.40;;;;;;7320451;19;9468;-76
2023/09/05 12:23:36;;;;;;;;;;;26.70;78.90;;;;;;7319830;19;9270;-76
2023/09/05 12:26:43;;;;;;;;;;;26.80;78.70;;;;;;7317882;19;9593;-75
2023/09/05 12:29:40;;;;;;;;;;;26.80;78.60;;;;;;7316984;19;9545;-75
2023/09/05 12:32:09;;;;;;;;;;;26.90;78.70;;;;;;7318462;19;9564;-75
2023/09/05 12:34:38;;;;;;;;;;;26.90;78.40;;;;;;7318546;19;9252;-76
2023/09/05 12:37:07;;;;;;;;;;;26.90;77.80;;;;;;7321278;19;9668;-75
2023/09/05 12:39:57;;;;;;;;;;;27.00;77.50;;;;;;7318957;19;9571;-75
2023/09/05 12:42:29;;;;;;;;;;;27.00;77.00;;;;;;7319562;19;9545;-76
2023/09/05 12:44:58;;;;;;;;;;;27.00;77.80;;;;;;7320029;19;9229;-75
2023/09/05 12:47:26;;;;;;;;;;;27.00;78.00;;;;;;7316379;19;9193;-76
2023/09/05 12:49:57;;;;;;;;;;;27.00;78.10;;;;;;7317389;19;9240;-75
2023/09/05 12:52:29;;;;;;;;;;;27.00;78.20;;;;;;7312502;19;9315;-76
2023/09/05 12:54:58;;;;;;;;;;;27.00;78.10;;;;;;7315928;19;14231;-76
2023/09/05 12:57:30;;;;;;;;;;;27.10;78.00;;;;;;7317542;19;9476;-75
2023/09/05 13:00:20;;;;;;;;;;;27.10;78.60;;;;;;7316502;19;9533;-76
2023/09/05 13:02:49;;;;;;;;;;;27.10;78.10;;;;;;7307392;19;9253;-75
2023/09/05 13:05:18;;;;;;;;;;;27.10;78.20;;;;;;7314203;19;9393;-74
2023/09/05 13:07:47;;;;;;;;;;;27.10;77.80;;;;;;7312964;19;9324;-74
2023/09/05 13:10:17;;;;;;;;;;;27.10;77.60;;;;;;7313763;19;9302;-75
2023/09/05 13:12:50;;;;;;;;;;;27.10;78.00;;;;;;7317129;19;9466;-74
2023/09/05 13:15:21;;;;;;;;;;;27.20;77.70;;;;;;7316542;19;9618;-74
2023/09/05 13:17:50;;;;;;;;;;;27.10;77.60;;;;;;7308832;19;9329;-75
2023/09/05 13:20:19;;;;;;;;;;;27.10;77.80;;;;;;7322019;19;9310;-75
2023/09/05 13:22:51;;;;;;;;;;;27.10;77.80;;;;;;7312293;19;9161;-75
2023/09/05 13:25:21;;;;;;;;;;;27.10;77.80;;;;;;7322530;19;9358;-75
2023/09/05 13:27:53;;;;;;;;;;;27.20;78.00;;;;;;7325482;19;9251;-75
2023/09/05 13:30:22;;;;;;;;;;;27.20;77.30;;;;;;7323082;19;9470;-74
2023/09/05 13:32:52;;;;;;;;;;;27.20;76.90;;;;;;7321768;19;9517;-74
2023/09/05 13:35:21;;;;;;;;;;;27.20;76.80;;;;;;7321400;19;10533;-74
2023/09/05 13:37:50;;;;;;;;;;;27.20;76.50;;;;;;7321091;19;9468;-74
2023/09/05 13:40:19;;;;;;;;;;;27.20;76.70;;;;;;7324992;19;9444;-74
2023/09/05 13:42:48;;;;;;;;;;;27.20;76.40;;;;;;7313154;19;9488;-74
2023/09/05 13:45:19;;;;;;;;;;;27.20;76.70;;;;;;7322430;19;9414;-74
2023/09/05 13:47:48;;;;;;;;;;;27.20;76.50;;;;;;7322916;19;10810;-75
2023/09/05 13:50:37;;;;;;;;;;;27.30;76.60;;;;;;7321496;19;9234;-75
2023/09/05 13:53:07;;;;;;;;;;;27.30;76.50;;;;;;7322666;19;9079;-74
2023/09/05 13:55:36;;;;;;;;;;;27.30;76.00;;;;;;7321203;19;9225;-74
2023/09/05 13:58:06;;;;;;;;;;;27.40;76.30;;;;;;7321713;19;9482;-75
2023/09/05 14:00:57;;;;;;;;;;;27.40;76.30;;;;;;7322464;19;9301;-75
2023/09/05 14:03:26;;;;;;;;;;;27.40;76.20;;;;;;7321196;19;9247;-75
2023/09/05 14:05:55;;;;;;;;;;;27.40;76.50;;;;;;7309557;19;9301;-75
2023/09/05 14:08:45;;;;;;;;;;;27.40;76.50;;;;;;7303483;19;9253;-75
2023/09/05 14:11:14;;;;;;;;;;;27.40;77.70;;;;;;7318624;19;10343;-75
2023/09/05 14:13:43;;;;;;;;;;;27.30;77.40;;;;;;7324134;19;9304;-75
2023/09/05 14:16:18;;;;;;;;;;;27.40;78.00;;;;;;7320703;19;9126;-75
2023/09/05 14:18:48;;;;;;;;;;;27.30;77.70;;;;;;7320811;19;9462;-75
2023/09/05 14:21:17;;;;;;;;;;;27.30;78.10;;;;;;7320296;19;9833;-75
2023/09/05 14:23:46;;;;;;;;;;;27.30;78.00;;;;;;7321781;19;9532;-75
2023/09/05 14:26:35;;;;;;;;;;;27.30;78.20;;;;;;7320668;19;9519;-75
2023/09/05 14:29:05;;;;;;;;;;;27.30;78.90;;;;;;7319866;19;10322;-75
2023/09/05 14:31:36;;;;;;;;;;;27.30;79.30;;;;;;7321955;19;9407;-75
2023/09/05 14:34:06;;;;;;;;;;;27.30;79.20;;;;;;7322065;19;9233;-75
2023/09/05 14:36:35;;;;;;;;;;;27.30;80.10;;;;;;7323611;19;9296;-75
2023/09/05 14:39:04;;;;;;;;;;;27.30;80.40;;;;;;7315800;19;9377;-75
2023/09/05 14:41:33;;;;;;;;;;;27.30;81.10;;;;;;7321008;19;10743;-75
2023/09/05 14:44:04;;;;;;;;;;;27.40;81.00;;;;;;7320498;19;9324;-75
2023/09/05 14:46:38;;;;;;;;;;;27.40;81.40;;;;;;7321918;19;9116;-75
2023/09/05 14:49:10;;;;;;;;;;;27.40;81.00;;;;;;7319553;19;9182;-75
2023/09/05 14:51:41;;;;;;;;;;;27.30;81.40;;;;;;7321055;19;9280;-75
2023/09/05 14:54:30;;;;;;;;;;;27.30;81.50;;;;;;7322032;19;9301;-75
2023/09/05 14:56:59;;;;;;;;;;;27.30;82.00;;;;;;7322357;19;9205;-75
2023/09/05 14:59:28;;;;;;;;;;;27.30;82.20;;;;;;7322695;19;9550;-75
2023/09/05 15:01:59;;;;;;;;;;;27.30;82.50;;;;;;7320964;19;9107;-75
2023/09/05 15:04:48;;;;;;;;;;;27.30;82.50;;;;;;7320510;19;9196;-75